Time;durP1;ratioP1;P1;durP2;ratioP2;P2;SDS_P1;SDS_P2;PMS_P1;PMS_P2;Temp;Humidity;BMP_temperature;BMP_pressure;BME280_temperature;BME280_humidity;BME280_pressure;Samples;Min_cycle;Max_cycle;Signal;HPM_P1;HPM_P2
2021/03/29 00:00:12;;;;;;;1.73;1.20;;;18.10;51.60;;;;;;4880128;29;20173;-73
2021/03/29 00:02:37;;;;;;;3.13;1.80;;;18.00;51.50;;;;;;4877860;29;20241;-75
2021/03/29 00:05:03;;;;;;;1.48;1.20;;;18.10;51.60;;;;;;4878807;29;20256;-72
2021/03/29 00:07:30;;;;;;;1.98;1.55;;;18.10;51.60;;;;;;4878572;29;20178;-73
2021/03/29 00:09:55;;;;;;;1.33;1.15;;;18.10;51.60;;;;;;4877999;29;20600;-75
2021/03/29 00:12:21;;;;;;;2.00;1.20;;;18.00;51.60;;;;;;4878728;29;20174;-75
2021/03/29 00:14:47;;;;;;;3.05;1.42;;;18.00;51.50;;;;;;4878903;29;20185;-72
2021/03/29 00:17:13;;;;;;;2.05;1.38;;;18.00;51.50;;;;;;4878305;29;20672;-75
2021/03/29 00:19:39;;;;;;;2.90;1.40;;;18.00;51.60;;;;;;4879636;29;20267;-73
2021/03/29 00:22:05;;;;;;;1.80;1.27;;;18.00;51.50;;;;;;4879686;29;20299;-73
2021/03/29 00:24:31;;;;;;;2.97;1.83;;;18.00;51.50;;;;;;4877489;29;20180;-73
2021/03/29 00:26:57;;;;;;;1.48;1.33;;;18.00;51.50;;;;;;4878614;29;20626;-69
2021/03/29 00:29:23;;;;;;;2.28;1.52;;;18.00;51.50;;;;;;4877714;29;20184;-71
2021/03/29 00:31:48;;;;;;;1.48;1.30;;;18.00;51.50;;;;;;4878347;29;20241;-71
2021/03/29 00:34:14;;;;;;;2.60;1.70;;;18.00;51.50;;;;;;4878739;29;20212;-72
2021/03/29 00:36:40;;;;;;;1.73;1.10;;;18.00;51.50;;;;;;4877715;29;20600;-72
2021/03/29 00:39:06;;;;;;;1.50;1.40;;;17.90;51.50;;;;;;4878358;29;20175;-73
2021/03/29 00:41:32;;;;;;;2.47;1.52;;;17.90;51.50;;;;;;4877948;29;20273;-74
2021/03/29 00:43:58;;;;;;;1.48;1.30;;;17.90;51.40;;;;;;4877668;29;20182;-74
2021/03/29 00:46:23;;;;;;;1.67;1.40;;;17.90;51.50;;;;;;4878048;29;20181;-75
2021/03/29 00:48:50;;;;;;;1.60;1.50;;;17.90;51.50;;;;;;4878163;29;20174;-74
2021/03/29 00:51:17;;;;;;;2.25;1.40;;;17.90;52.10;;;;;;4877712;29;20174;-72
2021/03/29 00:53:53;;;;;;;1.52;1.33;;;17.90;51.40;;;;;;4877849;29;20661;-70
2021/03/29 00:56:19;;;;;;;3.03;1.58;;;17.90;51.50;;;;;;4862373;29;20208;-73
2021/03/29 00:58:45;;;;;;;2.53;1.38;;;17.90;51.40;;;;;;4877509;29;20274;-76
2021/03/29 01:01:13;;;;;;;2.55;1.45;;;17.90;51.40;;;;;;4878014;29;20341;-71
2021/03/29 01:03:41;;;;;;;1.52;1.30;;;17.80;52.00;;;;;;4876909;29;20764;-73
2021/03/29 01:06:12;;;;;;;2.88;1.40;;;17.90;51.40;;;;;;4877327;29;20174;-72
2021/03/29 01:08:41;;;;;;;2.75;1.50;;;17.80;51.40;;;;;;4877635;29;20213;-74
2021/03/29 01:11:09;;;;;;;2.00;1.58;;;17.80;51.30;;;;;;4877827;29;20229;-75
2021/03/29 01:13:35;;;;;;;2.25;1.25;;;17.80;51.40;;;;;;4876558;29;20181;-76
2021/03/29 01:16:02;;;;;;;2.15;1.15;;;17.80;52.00;;;;;;4862254;29;20177;-75
2021/03/29 01:18:27;;;;;;;2.10;1.27;;;17.80;51.40;;;;;;4877657;29;20236;-75
2021/03/29 01:21:05;;;;;;;2.15;1.30;;;17.80;51.40;;;;;;4877205;29;20185;-71
2021/03/29 01:23:30;;;;;;;3.13;1.70;;;17.80;51.30;;;;;;4878647;29;20181;-73
2021/03/29 01:26:11;;;;;;;1.40;1.30;;;17.80;51.30;;;;;;4877007;29;20180;-72
2021/03/29 01:28:37;;;;;;;1.10;1.00;;;17.80;51.40;;;;;;4877470;29;20220;-74
2021/03/29 01:31:02;;;;;;;2.65;1.40;;;17.80;51.30;;;;;;4877634;29;20219;-69
2021/03/29 01:33:28;;;;;;;2.33;1.50;;;17.80;51.30;;;;;;4876892;29;20188;-72
2021/03/29 01:35:59;;;;;;;1.95;1.35;;;17.80;51.30;;;;;;4877426;29;20177;-73
2021/03/29 01:38:26;;;;;;;1.90;1.52;;;17.80;51.30;;;;;;4877440;29;20182;-72
2021/03/29 01:40:51;;;;;;;1.98;1.30;;;17.80;51.30;;;;;;4876966;29;20229;-75
2021/03/29 01:43:17;;;;;;;3.03;1.42;;;17.80;51.30;;;;;;4877626;29;20189;-74
2021/03/29 01:45:43;;;;;;;2.05;1.40;;;17.70;51.30;;;;;;4861755;29;20555;-75
2021/03/29 01:48:09;;;;;;;1.75;1.40;;;17.70;51.30;;;;;;4876981;29;20169;-75
2021/03/29 01:50:37;;;;;;;2.70;1.50;;;17.70;51.30;;;;;;4877191;29;20596;-69
2021/03/29 01:53:04;;;;;;;2.53;1.60;;;17.70;51.30;;;;;;4877494;29;20610;-71
2021/03/29 01:55:30;;;;;;;2.15;1.40;;;17.70;51.30;;;;;;4876637;29;20257;-74
2021/03/29 01:57:56;;;;;;;1.35;1.25;;;17.70;51.30;;;;;;4861862;29;20204;-75
2021/03/29 02:00:28;;;;;;;1.75;1.30;;;17.70;51.30;;;;;;4878393;29;20292;-73
2021/03/29 02:02:53;;;;;;;2.35;1.48;;;17.70;51.30;;;;;;4876623;29;20233;-70
2021/03/29 02:05:19;;;;;;;3.20;1.88;;;17.70;51.30;;;;;;4861391;29;20176;-70
2021/03/29 02:07:45;;;;;;;2.42;1.40;;;17.70;51.30;;;;;;4876934;29;20256;-73
2021/03/29 02:10:15;;;;;;;3.35;1.73;;;17.70;51.30;;;;;;4861711;29;20197;-75
2021/03/29 02:12:41;;;;;;;2.50;1.63;;;17.70;51.20;;;;;;4877116;29;20272;-79
2021/03/29 02:15:11;;;;;;;1.92;1.42;;;17.70;51.30;;;;;;4879409;29;20288;-76
2021/03/29 02:17:37;;;;;;;2.05;1.45;;;17.70;51.30;;;;;;4865103;29;20185;-70
2021/03/29 02:20:08;;;;;;;1.73;1.30;;;17.70;51.30;;;;;;4880698;29;20177;-74
2021/03/29 02:22:34;;;;;;;2.05;1.48;;;17.70;51.30;;;;;;4880980;29;20585;-73
2021/03/29 02:24:59;;;;;;;2.17;1.42;;;17.70;51.20;;;;;;4880628;29;20174;-74
2021/03/29 02:27:25;;;;;;;2.42;1.58;;;17.60;51.20;;;;;;4864898;29;20547;-72
2021/03/29 02:29:52;;;;;;;1.83;1.33;;;17.60;51.20;;;;;;4880142;29;20181;-74
2021/03/29 02:32:17;;;;;;;1.88;1.27;;;17.60;51.20;;;;;;4865076;29;20191;-72
2021/03/29 02:34:43;;;;;;;2.92;1.40;;;17.60;51.20;;;;;;4880208;29;20181;-73
2021/03/29 02:37:08;;;;;;;2.65;1.40;;;17.60;51.20;;;;;;4879818;29;20237;-72
2021/03/29 02:39:34;;;;;;;2.05;1.55;;;17.60;51.20;;;;;;4880228;29;20237;-70
2021/03/29 02:42:00;;;;;;;2.03;1.27;;;17.60;51.20;;;;;;4880292;29;20221;-76
2021/03/29 02:44:25;;;;;;;2.10;1.40;;;17.60;51.20;;;;;;4864000;29;20189;-75
2021/03/29 02:46:51;;;;;;;2.38;1.50;;;17.60;51.20;;;;;;4880321;29;20185;-69
2021/03/29 02:49:16;;;;;;;1.63;1.30;;;17.60;51.20;;;;;;4880324;29;20170;-72
2021/03/29 02:51:43;;;;;;;2.05;1.50;;;17.60;51.80;;;;;;4879364;29;20757;-69
2021/03/29 02:54:08;;;;;;;2.03;1.50;;;17.60;51.10;;;;;;4880099;29;20174;-75
2021/03/29 02:56:44;;;;;;;1.88;1.67;;;17.60;51.10;;;;;;4879907;29;20177;-75
2021/03/29 02:59:19;;;;;;;2.65;1.70;;;17.60;51.70;;;;;;4879415;29;20177;-73
2021/03/29 03:01:45;;;;;;;2.35;1.55;;;17.60;51.80;;;;;;4864478;29;20243;-73
2021/03/29 03:04:12;;;;;;;3.78;1.42;;;17.50;51.10;;;;;;4848410;29;20173;-72
2021/03/29 03:06:38;;;;;;;2.22;1.30;;;17.50;51.10;;;;;;4864263;29;20690;-75
2021/03/29 03:09:05;;;;;;;2.30;1.50;;;17.50;51.10;;;;;;4879908;29;20205;-74
2021/03/29 03:11:32;;;;;;;3.40;1.73;;;17.50;51.10;;;;;;4863643;29;20238;-73
2021/03/29 03:13:58;;;;;;;1.90;1.38;;;17.50;51.10;;;;;;4864331;29;20204;-77
2021/03/29 03:16:23;;;;;;;2.95;1.77;;;17.50;51.10;;;;;;4879579;29;20260;-72
2021/03/29 03:18:49;;;;;;;1.98;1.77;;;17.50;51.10;;;;;;4879091;29;20228;-75
2021/03/29 03:21:16;;;;;;;2.63;1.42;;;17.50;51.10;;;;;;4879805;29;20221;-73
2021/03/29 03:23:55;;;;;;;2.20;1.50;;;17.50;51.10;;;;;;4879435;29;20174;-73
2021/03/29 03:26:21;;;;;;;2.28;1.60;;;17.50;51.10;;;;;;4862794;29;20324;-69
2021/03/29 03:28:46;;;;;;;1.67;1.30;;;17.50;51.10;;;;;;4880838;29;20686;-72
2021/03/29 03:31:12;;;;;;;2.30;1.50;;;17.50;51.70;;;;;;4880659;29;20170;-71
2021/03/29 03:33:37;;;;;;;2.20;1.65;;;17.50;51.10;;;;;;4879688;29;20526;-72
2021/03/29 03:36:03;;;;;;;3.28;1.80;;;17.50;51.10;;;;;;4864053;29;20268;-72
2021/03/29 03:38:36;;;;;;;2.33;1.60;;;17.50;51.10;;;;;;4863716;29;20567;-72
2021/03/29 03:41:05;;;;;;;2.17;1.30;;;17.50;51.10;;;;;;4847752;29;20177;-73
2021/03/29 03:43:37;;;;;;;1.40;1.30;;;17.50;51.10;;;;;;4879125;29;20630;-73
2021/03/29 03:46:07;;;;;;;2.70;1.67;;;17.50;51.10;;;;;;4879183;29;20660;-75
2021/03/29 03:48:33;;;;;;;3.22;1.63;;;17.50;51.10;;;;;;4862848;29;20185;-75
2021/03/29 03:50:58;;;;;;;3.53;1.77;;;17.40;51.10;;;;;;4879311;29;20200;-75
2021/03/29 03:53:25;;;;;;;2.30;1.63;;;17.40;51.00;;;;;;4862912;29;20213;-73
2021/03/29 03:55:56;;;;;;;2.70;1.65;;;17.40;51.00;;;;;;4863409;29;20182;-71
2021/03/29 03:58:21;;;;;;;2.35;1.65;;;17.40;51.00;;;;;;4863469;29;20250;-74
2021/03/29 04:00:47;;;;;;;2.25;1.52;;;17.40;51.00;;;;;;4878381;29;20634;-74
2021/03/29 04:03:13;;;;;;;2.40;2.00;;;17.40;51.00;;;;;;4863310;29;20244;-71
2021/03/29 04:05:39;;;;;;;1.38;1.27;;;17.40;51.10;;;;;;4863299;29;20173;-74
2021/03/29 04:08:05;;;;;;;2.90;1.50;;;17.40;51.00;;;;;;4878472;29;20612;-73
2021/03/29 04:13:02;;;;;;;2.55;1.80;;;17.40;51.10;;;;;;4864213;29;20185;-75
2021/03/29 04:15:27;;;;;;;2.53;1.95;;;17.40;51.00;;;;;;4862246;29;20229;-76
2021/03/29 04:17:53;;;;;;;1.63;1.30;;;17.40;51.10;;;;;;4878649;29;20180;-72
2021/03/29 04:20:19;;;;;;;2.05;1.50;;;17.40;51.10;;;;;;4879622;29;20181;-69
2021/03/29 04:22:44;;;;;;;2.75;1.90;;;17.40;51.10;;;;;;4879268;29;20224;-75
2021/03/29 04:25:13;;;;;;;2.80;1.90;;;17.30;51.00;;;;;;4863031;29;20253;-69
2021/03/29 04:27:39;;;;;;;1.90;1.75;;;17.30;51.00;;;;;;4862939;29;20185;-69
2021/03/29 04:30:06;;;;;;;1.67;1.52;;;17.30;51.00;;;;;;4862291;29;20180;-72
2021/03/29 04:32:32;;;;;;;2.22;1.77;;;17.30;51.00;;;;;;4878250;29;20184;-72
2021/03/29 04:34:57;;;;;;;1.80;1.70;;;17.30;51.00;;;;;;4878273;29;20177;-72
2021/03/29 04:37:23;;;;;;;1.42;1.33;;;17.30;51.00;;;;;;4877935;29;20177;-71
2021/03/29 04:39:49;;;;;;;1.38;1.25;;;17.30;51.00;;;;;;4862698;29;20345;-72
2021/03/29 04:42:14;;;;;;;1.63;1.33;;;17.30;51.00;;;;;;4878248;29;20201;-73
2021/03/29 04:44:40;;;;;;;2.60;1.50;;;17.40;51.00;;;;;;4877461;29;20256;-76
2021/03/29 04:47:05;;;;;;;1.90;1.42;;;17.30;51.10;;;;;;4879283;29;20184;-75
2021/03/29 04:49:31;;;;;;;2.50;1.50;;;17.40;51.10;;;;;;4861854;29;20220;-69
2021/03/29 04:51:57;;;;;;;3.08;1.65;;;17.30;51.10;;;;;;4879292;29;20180;-75
2021/03/29 04:54:22;;;;;;;2.33;1.55;;;17.30;51.10;;;;;;4879180;29;20169;-73
2021/03/29 04:56:48;;;;;;;1.83;1.30;;;17.30;51.10;;;;;;4878665;29;20233;-71
2021/03/29 04:59:13;;;;;;;2.38;1.60;;;17.30;51.10;;;;;;4879272;29;20176;-70
2021/03/29 05:01:39;;;;;;;2.33;1.65;;;17.30;51.10;;;;;;4861989;29;20209;-73
2021/03/29 05:04:05;;;;;;;1.60;1.30;;;17.30;51.10;;;;;;4878567;29;20635;-71
2021/03/29 05:06:31;;;;;;;2.08;1.80;;;17.30;51.10;;;;;;4878987;29;20192;-72
2021/03/29 05:08:56;;;;;;;2.53;1.63;;;17.30;51.10;;;;;;4877928;29;20203;-71
2021/03/29 05:11:22;;;;;;;2.25;1.50;;;17.30;51.20;;;;;;4877098;29;20185;-74
2021/03/29 05:13:48;;;;;;;2.78;1.42;;;17.30;51.30;;;;;;4878863;29;20173;-74
2021/03/29 05:16:13;;;;;;;1.48;1.38;;;17.40;51.40;;;;;;4879142;29;20316;-71
2021/03/29 05:18:39;;;;;;;3.83;1.75;;;17.40;51.20;;;;;;4878202;29;20173;-74
2021/03/29 05:21:05;;;;;;;2.00;1.17;;;17.50;51.30;;;;;;4878760;29;20178;-71
2021/03/29 05:23:30;;;;;;;1.90;1.70;;;17.50;51.20;;;;;;4878539;29;20213;-73
2021/03/29 05:25:56;;;;;;;1.60;1.42;;;17.50;51.20;;;;;;4861648;29;20212;-72
2021/03/29 05:28:22;;;;;;;2.10;1.60;;;17.50;51.20;;;;;;4877591;29;20181;-72
2021/03/29 05:30:47;;;;;;;2.45;1.52;;;17.40;51.10;;;;;;4877875;29;20225;-72
2021/03/29 05:33:13;;;;;;;2.95;1.40;;;17.40;51.10;;;;;;4861568;29;20276;-71
2021/03/29 05:35:38;;;;;;;2.13;1.50;;;17.40;51.10;;;;;;4878341;29;20189;-73
2021/03/29 05:38:04;;;;;;;2.95;1.52;;;17.40;51.10;;;;;;4862135;29;20174;-73
2021/03/29 05:40:30;;;;;;;2.55;1.40;;;17.50;51.90;;;;;;4876874;29;20619;-74
2021/03/29 05:42:55;;;;;;;2.13;1.33;;;17.50;51.10;;;;;;4861968;29;20224;-75
2021/03/29 05:45:22;;;;;;;2.05;1.63;;;17.50;51.10;;;;;;4877288;29;20626;-72
2021/03/29 05:47:48;;;;;;;1.77;1.50;;;17.50;51.00;;;;;;4861532;29;20173;-71
2021/03/29 05:50:15;;;;;;;2.13;1.35;;;17.50;51.00;;;;;;4865213;29;20180;-70
2021/03/29 05:52:40;;;;;;;2.00;1.17;;;17.50;51.00;;;;;;4881093;29;20201;-75
2021/03/29 05:55:14;;;;;;;2.35;1.60;;;17.50;51.00;;;;;;4881765;29;20627;-72
2021/03/29 05:58:04;;;;;;;1.80;1.52;;;17.50;51.10;;;;;;4881066;29;20173;-70
2021/03/29 06:00:33;;;;;;;2.70;1.50;;;17.50;51.10;;;;;;4879828;29;20259;-68
2021/03/29 06:03:17;;;;;;;2.25;1.77;;;17.50;51.10;;;;;;4882006;29;20239;-73
2021/03/29 06:05:43;;;;;;;2.05;1.40;;;17.50;51.10;;;;;;4881873;29;20173;-73
2021/03/29 06:08:09;;;;;;;2.42;1.50;;;17.50;51.10;;;;;;4864966;29;20554;-73
2021/03/29 06:10:35;;;;;;;2.35;1.40;;;17.60;51.00;;;;;;4880720;29;20189;-75
2021/03/29 06:13:01;;;;;;;2.00;1.80;;;17.60;51.00;;;;;;4882016;29;20188;-74
2021/03/29 06:15:30;;;;;;;1.73;1.35;;;17.60;51.10;;;;;;4848734;29;20181;-75
2021/03/29 06:18:15;;;;;;;1.83;1.48;;;17.60;51.10;;;;;;4865238;29;20177;-71
2021/03/29 06:21:03;;;;;;;2.47;1.60;;;17.50;51.00;;;;;;4865186;29;20205;-75
2021/03/29 06:23:29;;;;;;;2.08;1.40;;;17.50;51.10;;;;;;4881530;29;20209;-71
2021/03/29 06:26:21;;;;;;;1.80;1.52;;;17.50;51.10;;;;;;4865053;29;20240;-69
2021/03/29 06:28:47;;;;;;;2.17;1.40;;;17.50;51.20;;;;;;4880243;29;20177;-71
2021/03/29 06:31:22;;;;;;;2.03;1.20;;;17.50;51.10;;;;;;4881791;29;20173;-69
2021/03/29 06:33:48;;;;;;;2.20;1.60;;;17.60;51.10;;;;;;4880470;29;20271;-72
2021/03/29 06:36:36;;;;;;;1.83;1.23;;;17.60;51.10;;;;;;4881164;29;20261;-72
2021/03/29 06:39:13;;;;;;;1.85;1.48;;;17.60;51.10;;;;;;4880465;29;20173;-72
2021/03/29 06:41:39;;;;;;;1.80;1.50;;;17.50;51.00;;;;;;4881271;29;20213;-66
2021/03/29 06:44:05;;;;;;;2.58;1.77;;;17.50;51.10;;;;;;4879912;29;20660;-80
2021/03/29 06:46:30;;;;;;;4.93;1.73;;;17.60;51.20;;;;;;4880068;29;20189;-64
2021/03/29 06:48:59;;;;;;;4.20;1.58;;;17.60;51.40;;;;;;4880168;29;20177;-68
2021/03/29 06:51:34;;;;;;;2.72;1.58;;;17.60;51.60;;;;;;4880556;29;20538;-68
2021/03/29 06:54:08;;;;;;;3.40;2.00;;;17.60;51.70;;;;;;4881381;29;20216;-68
2021/03/29 06:56:47;;;;;;;1.92;1.70;;;17.50;51.60;;;;;;4880520;29;20204;-63
2021/03/29 06:59:23;;;;;;;3.83;1.70;;;17.50;51.60;;;;;;4880389;29;20177;-70
2021/03/29 07:01:55;;;;;;;3.08;1.60;;;17.50;51.80;;;;;;4864657;29;20321;-62
2021/03/29 07:04:26;;;;;;;3.58;1.65;;;17.60;51.90;;;;;;4863483;29;20552;-71
2021/03/29 07:06:52;;;;;;;5.43;2.83;;;17.50;52.00;;;;;;4864512;29;20221;-70
2021/03/29 07:09:19;;;;;;;2.92;1.83;;;17.50;52.10;;;;;;4864483;29;20178;-69
2021/03/29 07:11:46;;;;;;;3.90;1.85;;;17.50;52.30;;;;;;4863711;29;20183;-71
2021/03/29 07:14:12;;;;;;;3.28;1.90;;;17.50;52.20;;;;;;4864279;29;20188;-71
2021/03/29 07:16:38;;;;;;;3.47;1.90;;;17.50;52.20;;;;;;4864145;29;20181;-72
2021/03/29 07:19:07;;;;;;;3.90;1.70;;;17.60;52.10;;;;;;4879094;29;20181;-70
2021/03/29 07:21:33;;;;;;;3.83;2.10;;;17.50;52.20;;;;;;4880663;29;20209;-68
2021/03/29 07:24:03;;;;;;;3.45;2.00;;;17.60;52.20;;;;;;4879552;29;20185;-68
2021/03/29 07:26:54;;;;;;;4.18;1.80;;;17.60;52.30;;;;;;4878904;29;20543;-70
2021/03/29 07:29:21;;;;;;;6.53;2.00;;;17.70;52.30;;;;;;4879334;29;20184;-69
2021/03/29 07:31:49;;;;;;;5.45;1.77;;;17.70;52.30;;;;;;4863484;29;20189;-71
2021/03/29 07:34:14;;;;;;;2.10;1.80;;;17.70;52.30;;;;;;4879348;29;20237;-69
2021/03/29 07:36:45;;;;;;;3.17;1.88;;;17.80;52.20;;;;;;4848198;29;20633;-70
2021/03/29 07:39:12;;;;;;;3.35;2.00;;;17.80;52.80;;;;;;4879762;29;20184;-65
2021/03/29 07:41:37;;;;;;;4.68;2.17;;;17.80;52.10;;;;;;4880058;29;20213;-68
2021/03/29 07:44:17;;;;;;;4.53;1.92;;;17.80;52.10;;;;;;4879117;29;20229;-70
2021/03/29 07:46:47;;;;;;;2.85;1.75;;;17.90;52.10;;;;;;4878499;29;20181;-69
2021/03/29 07:49:42;;;;;;;4.13;2.30;;;17.90;52.10;;;;;;4863851;29;20199;-63
2021/03/29 07:52:29;;;;;;;3.88;1.95;;;17.90;52.10;;;;;;4879051;29;20217;-63
2021/03/29 07:54:56;;;;;;;4.95;1.75;;;17.80;52.10;;;;;;4880299;29;20211;-71
2021/03/29 07:57:43;;;;;;;3.67;2.03;;;17.90;52.20;;;;;;4863172;29;20181;-68
2021/03/29 08:00:29;;;;;;;3.03;1.70;;;17.90;52.10;;;;;;4879377;29;20177;-69
2021/03/29 08:02:56;;;;;;;2.72;1.92;;;17.90;52.10;;;;;;4879819;29;20584;-65
2021/03/29 08:05:41;;;;;;;2.83;1.63;;;18.00;52.20;;;;;;4878569;29;20181;-64
2021/03/29 08:08:25;;;;;;;6.15;2.40;;;18.00;52.20;;;;;;4879421;29;20511;-69
2021/03/29 08:11:13;;;;;;;3.53;2.00;;;18.00;52.20;;;;;;4879824;29;20173;-68
2021/03/29 08:13:39;;;;;;;3.38;2.22;;;18.00;52.30;;;;;;4877884;29;20217;-70
2021/03/29 08:16:06;;;;;;;3.40;1.90;;;18.00;52.20;;;;;;4879830;29;20273;-66
2021/03/29 08:19:14;;;;;;;2.17;1.90;;;18.00;52.30;;;;;;4879645;29;20170;-64
2021/03/29 08:22:02;;;;;;;4.38;1.70;;;18.10;52.30;;;;;;4878829;29;20201;-67
2021/03/29 08:24:35;;;;;;;3.90;1.75;;;18.10;52.30;;;;;;4879522;29;20179;-69
2021/03/29 08:27:25;;;;;;;2.47;1.95;;;18.10;52.30;;;;;;4863084;29;20177;-69
2021/03/29 08:29:53;;;;;;;4.18;1.83;;;18.10;52.40;;;;;;4878997;29;20243;-71
2021/03/29 08:32:31;;;;;;;2.45;1.73;;;18.10;52.40;;;;;;4879506;29;20272;-67
2021/03/29 08:35:07;;;;;;;2.70;1.60;;;18.10;52.40;;;;;;4877661;29;20254;-65
2021/03/29 08:37:40;;;;;;;2.75;1.92;;;18.10;52.40;;;;;;4862578;29;20193;-67
2021/03/29 08:40:10;;;;;;;4.75;2.03;;;18.20;52.50;;;;;;4879398;29;20173;-67
2021/03/29 08:42:36;;;;;;;3.47;1.75;;;18.20;52.50;;;;;;4877341;29;20212;-68
2021/03/29 08:45:11;;;;;;;2.80;1.67;;;18.20;52.40;;;;;;4862709;29;20233;-70
2021/03/29 08:47:38;;;;;;;3.42;1.52;;;18.20;52.50;;;;;;4879178;29;20622;-69
2021/03/29 08:50:08;;;;;;;2.38;1.75;;;18.30;52.60;;;;;;4862150;29;20230;-70
2021/03/29 08:52:46;;;;;;;3.25;2.13;;;18.30;52.60;;;;;;4862438;29;20641;-69
2021/03/29 08:55:23;;;;;;;3.30;1.70;;;18.30;52.50;;;;;;4862384;29;20197;-69
2021/03/29 08:57:54;;;;;;;2.60;2.03;;;18.30;52.60;;;;;;4878539;29;20534;-70
2021/03/29 09:00:24;;;;;;;3.53;1.73;;;18.30;52.60;;;;;;4862611;29;20268;-69
2021/03/29 09:02:50;;;;;;;3.17;1.70;;;18.30;52.60;;;;;;4854232;29;20263;-68
2021/03/29 09:05:17;;;;;;;2.67;2.00;;;18.30;52.60;;;;;;4879087;29;20630;-67
2021/03/29 09:07:53;;;;;;;2.65;1.85;;;18.30;52.60;;;;;;4877741;29;20601;-68
2021/03/29 09:10:27;;;;;;;5.30;2.42;;;18.40;52.60;;;;;;4877249;29;20173;-65
2021/03/29 09:12:56;;;;;;;2.08;1.70;;;18.40;52.60;;;;;;4877936;29;20204;-71
2021/03/29 09:15:23;;;;;;;2.42;1.67;;;18.40;52.60;;;;;;4877543;29;20169;-67
2021/03/29 09:18:05;;;;;;;3.30;1.80;;;18.40;52.60;;;;;;4877111;29;20344;-71
2021/03/29 09:20:33;;;;;;;2.75;1.65;;;18.40;52.60;;;;;;4878740;29;20179;-71
2021/03/29 09:22:59;;;;;;;3.50;1.80;;;18.40;52.60;;;;;;4878359;29;20213;-70
2021/03/29 09:25:37;;;;;;;2.70;1.77;;;18.40;52.60;;;;;;4876601;29;20221;-70
2021/03/29 09:28:25;;;;;;;2.63;1.80;;;18.50;52.60;;;;;;4878797;29;20317;-70
2021/03/29 09:30:53;;;;;;;2.13;1.67;;;18.50;52.70;;;;;;4877303;29;20264;-66
2021/03/29 09:33:21;;;;;;;2.35;1.60;;;18.50;52.70;;;;;;4877541;29;20176;-64
2021/03/29 09:35:48;;;;;;;2.38;1.80;;;18.50;52.60;;;;;;4877581;29;20177;-69
2021/03/29 09:38:14;;;;;;;3.25;1.45;;;18.50;52.60;;;;;;4861421;29;20276;-68
2021/03/29 09:40:39;;;;;;;2.65;1.90;;;18.50;52.60;;;;;;4877381;29;20256;-69
2021/03/29 09:43:05;;;;;;;3.78;1.60;;;18.50;52.60;;;;;;4878341;29;20356;-68
2021/03/29 09:45:33;;;;;;;3.25;1.90;;;18.60;52.60;;;;;;4877871;29;20349;-71
2021/03/29 09:48:05;;;;;;;2.65;1.67;;;18.60;52.70;;;;;;4877367;29;20524;-71
2021/03/29 09:50:38;;;;;;;2.42;1.70;;;18.60;52.60;;;;;;4877291;29;20166;-71
2021/03/29 09:53:14;;;;;;;1.83;1.67;;;18.60;52.60;;;;;;4876899;29;20540;-69
2021/03/29 09:55:50;;;;;;;1.77;1.35;;;18.60;52.60;;;;;;4877088;29;20260;-63
2021/03/29 09:58:30;;;;;;;2.75;1.60;;;18.60;52.60;;;;;;4877552;29;20173;-71
2021/03/29 10:01:01;;;;;;;4.85;1.95;;;18.70;52.60;;;;;;4876908;29;20177;-70
2021/03/29 10:03:26;;;;;;;2.75;1.65;;;18.70;52.50;;;;;;4877027;29;20229;-69
2021/03/29 10:05:53;;;;;;;3.58;1.88;;;18.70;52.40;;;;;;4878474;29;20178;-71
2021/03/29 10:08:31;;;;;;;3.10;1.83;;;18.80;52.40;;;;;;4876536;29;20197;-62
2021/03/29 10:11:05;;;;;;;3.25;1.58;;;18.80;52.50;;;;;;4877456;29;20170;-72
2021/03/29 10:13:37;;;;;;;1.55;1.35;;;18.80;52.40;;;;;;4877636;29;20177;-74
2021/03/29 10:16:22;;;;;;;3.45;1.52;;;18.80;52.40;;;;;;4877258;29;20272;-74
2021/03/29 10:19:00;;;;;;;3.38;1.58;;;18.80;52.30;;;;;;4878244;29;20170;-69
2021/03/29 10:21:26;;;;;;;3.05;1.40;;;18.80;52.30;;;;;;4877400;29;20665;-71
2021/03/29 10:24:08;;;;;;;4.88;1.60;;;18.90;52.30;;;;;;4876957;29;20192;-74
2021/03/29 10:26:34;;;;;;;4.93;1.63;;;18.90;52.20;;;;;;4876851;29;20177;-66
2021/03/29 10:29:02;;;;;;;3.47;1.70;;;18.90;52.20;;;;;;4876557;29;20174;-72
2021/03/29 10:31:29;;;;;;;2.65;1.48;;;19.00;52.20;;;;;;4876861;29;20345;-71
2021/03/29 10:33:55;;;;;;;7.25;1.83;;;19.00;52.10;;;;;;4876781;29;20328;-66
2021/03/29 10:36:22;;;;;;;2.08;1.58;;;19.00;52.10;;;;;;4879536;29;20181;-70
2021/03/29 10:38:49;;;;;;;2.83;1.50;;;19.00;52.10;;;;;;4865159;29;20177;-66
2021/03/29 10:41:15;;;;;;;4.45;2.08;;;19.00;52.00;;;;;;4880067;29;20170;-71
2021/03/29 10:43:41;;;;;;;2.75;1.50;;;19.10;52.70;;;;;;4880115;29;20542;-73
2021/03/29 10:46:06;;;;;;;3.25;1.55;;;19.10;52.60;;;;;;4880154;29;20192;-75
2021/03/29 10:48:32;;;;;;;4.13;1.60;;;19.10;52.00;;;;;;4879357;29;20213;-67
2021/03/29 10:50:59;;;;;;;2.83;1.20;;;19.10;52.60;;;;;;4880309;29;20207;-72
2021/03/29 10:53:24;;;;;;;2.38;1.42;;;19.10;52.00;;;;;;4864205;29;20181;-71
2021/03/29 10:55:50;;;;;;;4.13;1.70;;;19.20;52.00;;;;;;4880533;29;20186;-70
2021/03/29 10:58:16;;;;;;;3.90;1.83;;;19.20;51.90;;;;;;4864297;29;20185;-69
2021/03/29 11:00:41;;;;;;;4.25;1.88;;;19.20;51.90;;;;;;4881119;29;20205;-71
2021/03/29 11:03:07;;;;;;;5.78;1.40;;;19.20;52.00;;;;;;4863527;29;20237;-65
2021/03/29 11:05:32;;;;;;;7.32;2.45;;;19.20;52.00;;;;;;4863923;29;20618;-66
2021/03/29 11:07:58;;;;;;;5.03;1.60;;;19.30;52.20;;;;;;4864353;29;20185;-77
2021/03/29 11:10:24;;;;;;;5.55;1.63;;;19.20;52.10;;;;;;4880517;29;20180;-70
2021/03/29 11:12:49;;;;;;;3.45;1.40;;;19.20;52.20;;;;;;4881127;29;20181;-71
2021/03/29 11:15:15;;;;;;;4.90;1.70;;;19.20;52.20;;;;;;4879771;29;20181;-70
2021/03/29 11:17:41;;;;;;;3.60;1.70;;;19.30;52.20;;;;;;4878816;29;20181;-67
2021/03/29 11:20:07;;;;;;;3.63;1.80;;;19.30;52.20;;;;;;4879715;29;20190;-74
2021/03/29 11:22:32;;;;;;;6.25;2.00;;;19.30;52.30;;;;;;4879375;29;20652;-78
2021/03/29 11:24:58;;;;;;;3.13;1.40;;;19.30;52.30;;;;;;4879119;29;20253;-74
2021/03/29 11:27:24;;;;;;;2.78;1.48;;;19.30;52.30;;;;;;4880744;29;20192;-65
2021/03/29 11:29:50;;;;;;;4.45;1.83;;;19.30;52.30;;;;;;4880641;29;20199;-74
2021/03/29 11:32:16;;;;;;;2.92;1.40;;;19.30;52.30;;;;;;4880122;29;20604;-75
2021/03/29 11:34:42;;;;;;;3.25;1.60;;;19.30;52.30;;;;;;4879319;29;20643;-76
2021/03/29 11:37:07;;;;;;;4.22;1.70;;;19.30;52.30;;;;;;4880603;29;20178;-75
2021/03/29 11:39:33;;;;;;;3.30;1.48;;;19.30;52.30;;;;;;4878742;29;20636;-77
2021/03/29 11:41:59;;;;;;;4.40;1.42;;;19.30;52.30;;;;;;4879065;29;20568;-73
2021/03/29 11:44:25;;;;;;;5.53;1.98;;;19.40;52.30;;;;;;4879003;29;20188;-74
2021/03/29 11:46:52;;;;;;;2.65;1.60;;;19.40;52.20;;;;;;4878065;29;20605;-74
2021/03/29 11:49:17;;;;;;;4.68;1.80;;;19.40;52.10;;;;;;4879390;29;20633;-74
2021/03/29 11:51:43;;;;;;;2.75;1.52;;;19.40;52.10;;;;;;4878577;29;20182;-75
2021/03/29 11:54:09;;;;;;;2.55;1.67;;;19.40;52.10;;;;;;4863447;29;20234;-68
2021/03/29 11:56:36;;;;;;;2.78;1.20;;;19.40;52.00;;;;;;4879060;29;20581;-71
2021/03/29 11:59:01;;;;;;;3.65;1.58;;;19.40;52.00;;;;;;4879593;29;20251;-68
2021/03/29 12:06:56;;;;;;;2.53;1.63;;;19.50;51.90;;;;;;4879739;29;20245;-75
2021/03/29 12:09:32;;;;;;;3.25;1.40;;;19.50;51.90;;;;;;4880226;29;20189;-77
2021/03/29 12:11:59;;;;;;;2.20;1.20;;;19.50;51.80;;;;;;4879969;29;20546;-78
2021/03/29 12:14:29;;;;;;;2.53;1.55;;;19.50;51.80;;;;;;4862623;29;20173;-66
2021/03/29 12:16:55;;;;;;;4.53;1.63;;;19.50;51.80;;;;;;4878814;29;20181;-66
2021/03/29 12:19:20;;;;;;;2.72;1.40;;;19.60;51.80;;;;;;4878520;29;20693;-65
2021/03/29 12:21:51;;;;;;;3.30;1.77;;;19.50;51.70;;;;;;4862644;29;20292;-74
2021/03/29 12:24:22;;;;;;;3.47;1.63;;;19.50;51.60;;;;;;4879171;29;20652;-73
2021/03/29 12:26:48;;;;;;;1.17;1.08;;;19.60;51.70;;;;;;4879395;29;20655;-65
2021/03/29 12:29:17;;;;;;;1.15;1.00;;;19.60;51.70;;;;;;4878993;29;20181;-69
2021/03/29 12:31:43;;;;;;;2.08;1.30;;;19.60;52.30;;;;;;4879782;29;20170;-76
2021/03/29 12:34:08;;;;;;;4.15;1.60;;;19.60;51.70;;;;;;4862289;29;20264;-66
2021/03/29 12:36:40;;;;;;;2.03;1.60;;;19.60;51.60;;;;;;4863595;29;20265;-75
2021/03/29 12:39:13;;;;;;;2.17;1.13;;;19.60;51.50;;;;;;4879559;29;20178;-76
2021/03/29 12:41:44;;;;;;;1.80;1.40;;;19.70;51.50;;;;;;4879759;29;20212;-68
2021/03/29 12:44:18;;;;;;;2.15;1.25;;;19.60;51.50;;;;;;4878451;29;20177;-65
2021/03/29 12:46:47;;;;;;;1.80;1.30;;;19.70;51.50;;;;;;4863519;29;20645;-68
2021/03/29 12:49:13;;;;;;;2.35;1.17;;;19.70;51.50;;;;;;4862502;29;20177;-75
2021/03/29 12:51:39;;;;;;;2.60;1.30;;;19.70;51.50;;;;;;4877996;29;20268;-73
2021/03/29 12:54:07;;;;;;;2.05;1.15;;;19.70;51.40;;;;;;4878096;29;20697;-72
2021/03/29 12:56:32;;;;;;;2.22;1.50;;;19.70;51.40;;;;;;4878481;29;20256;-70
2021/03/29 12:58:58;;;;;;;2.10;1.20;;;19.80;51.60;;;;;;4877292;29;20265;-62
2021/03/29 13:01:24;;;;;;;3.28;1.23;;;19.80;51.60;;;;;;4862252;29;20242;-68
2021/03/29 13:03:54;;;;;;;2.97;1.77;;;19.90;51.40;;;;;;4877362;29;20716;-73